sensor_id;sensor_type;location;lat;lon;timestamp;P1;durP1;ratioP1;P2;durP2;ratioP2
70715;SDS011;59053;50.832;12.882;2023-04-09T00:02:07;50.58;;;15.13;;
70715;SDS011;59053;50.832;12.882;2023-04-09T00:04:33;46.40;;;14.33;;
70715;SDS011;59053;50.832;12.882;2023-04-09T00:06:59;45.33;;;14.45;;
70715;SDS011;59053;50.832;12.882;2023-04-09T00:09:35;45.50;;;14.57;;
70715;SDS011;59053;50.832;12.882;2023-04-09T00:14:57;40.03;;;13.43;;
70715;SDS011;59053;50.832;12.882;2023-04-09T00:17:23;43.33;;;13.90;;
70715;SDS011;59053;50.832;12.882;2023-04-09T00:19:48;49.63;;;14.53;;
70715;SDS011;59053;50.832;12.882;2023-04-09T00:22:15;44.27;;;14.37;;
70715;SDS011;59053;50.832;12.882;2023-04-09T00:24:57;46.85;;;14.43;;
70715;SDS011;59053;50.832;12.882;2023-04-09T00:27:23;44.28;;;14.75;;
70715;SDS011;59053;50.832;12.882;2023-04-09T00:29:52;45.97;;;14.23;;
70715;SDS011;59053;50.832;12.882;2023-04-09T00:32:18;48.15;;;14.65;;
70715;SDS011;59053;50.832;12.882;2023-04-09T00:34:44;51.67;;;14.90;;
70715;SDS011;59053;50.832;12.882;2023-04-09T00:37:26;52.17;;;16.08;;
70715;SDS011;59053;50.832;12.882;2023-04-09T00:39:51;45.50;;;14.05;;
70715;SDS011;59053;50.832;12.882;2023-04-09T00:42:17;44.83;;;14.53;;
70715;SDS011;59053;50.832;12.882;2023-04-09T00:45:10;49.38;;;14.38;;
70715;SDS011;59053;50.832;12.882;2023-04-09T00:47:36;45.03;;;14.80;;
70715;SDS011;59053;50.832;12.882;2023-04-09T00:50:02;44.33;;;14.73;;
70715;SDS011;59053;50.832;12.882;2023-04-09T00:52:38;45.17;;;14.20;;
70715;SDS011;59053;50.832;12.882;2023-04-09T00:55:04;48.00;;;13.63;;
70715;SDS011;59053;50.832;12.882;2023-04-09T00:57:30;45.38;;;14.75;;
70715;SDS011;59053;50.832;12.882;2023-04-09T01:00:08;43.07;;;14.07;;
70715;SDS011;59053;50.832;12.882;2023-04-09T01:02:35;43.90;;;13.77;;
70715;SDS011;59053;50.832;12.882;2023-04-09T01:05:01;47.72;;;15.07;;
70715;SDS011;59053;50.832;12.882;2023-04-09T01:07:36;48.37;;;15.07;;
70715;SDS011;59053;50.832;12.882;2023-04-09T01:24:39;45.85;;;14.45;;
70715;SDS011;59053;50.832;12.882;2023-04-09T01:27:14;47.15;;;14.35;;
70715;SDS011;59053;50.832;12.882;2023-04-09T01:32:44;43.00;;;14.30;;
70715;SDS011;59053;50.832;12.882;2023-04-09T01:38:25;45.20;;;14.93;;
70715;SDS011;59053;50.832;12.882;2023-04-09T01:40:51;45.00;;;14.38;;
70715;SDS011;59053;50.832;12.882;2023-04-09T01:43:18;45.17;;;14.35;;
70715;SDS011;59053;50.832;12.882;2023-04-09T01:45:44;41.60;;;13.87;;
70715;SDS011;59053;50.832;12.882;2023-04-09T01:48:11;42.88;;;14.32;;
70715;SDS011;59053;50.832;12.882;2023-04-09T01:53:56;45.58;;;13.65;;
70715;SDS011;59053;50.832;12.882;2023-04-09T01:56:23;52.33;;;15.17;;
70715;SDS011;59053;50.832;12.882;2023-04-09T01:59:05;47.03;;;14.13;;
70715;SDS011;59053;50.832;12.882;2023-04-09T02:01:38;43.45;;;13.70;;
70715;SDS011;59053;50.832;12.882;2023-04-09T02:04:15;45.78;;;15.30;;
70715;SDS011;59053;50.832;12.882;2023-04-09T02:09:38;41.97;;;13.57;;
70715;SDS011;59053;50.832;12.882;2023-04-09T02:16:10;40.15;;;13.40;;
70715;SDS011;59053;50.832;12.882;2023-04-09T02:18:37;46.83;;;14.10;;
70715;SDS011;59053;50.832;12.882;2023-04-09T02:21:02;45.73;;;14.17;;
70715;SDS011;59053;50.832;12.882;2023-04-09T02:23:29;42.67;;;13.90;;
70715;SDS011;59053;50.832;12.882;2023-04-09T02:26:06;45.63;;;14.33;;
70715;SDS011;59053;50.832;12.882;2023-04-09T02:31:24;37.30;;;13.55;;
70715;SDS011;59053;50.832;12.882;2023-04-09T02:33:50;45.33;;;14.30;;
70715;SDS011;59053;50.832;12.882;2023-04-09T02:36:18;45.35;;;14.40;;
70715;SDS011;59053;50.832;12.882;2023-04-09T02:38:43;47.67;;;14.80;;
70715;SDS011;59053;50.832;12.882;2023-04-09T02:41:09;51.77;;;14.33;;
70715;SDS011;59053;50.832;12.882;2023-04-09T02:43:36;47.70;;;13.60;;
70715;SDS011;59053;50.832;12.882;2023-04-09T02:46:08;40.63;;;13.00;;
70715;SDS011;59053;50.832;12.882;2023-04-09T02:48:44;47.23;;;14.20;;
70715;SDS011;59053;50.832;12.882;2023-04-09T02:51:10;42.63;;;13.93;;
70715;SDS011;59053;50.832;12.882;2023-04-09T02:53:35;49.50;;;14.13;;
70715;SDS011;59053;50.832;12.882;2023-04-09T02:56:10;47.08;;;14.07;;
70715;SDS011;59053;50.832;12.882;2023-04-09T02:58:35;45.60;;;14.10;;
70715;SDS011;59053;50.832;12.882;2023-04-09T03:05:02;47.63;;;14.00;;
70715;SDS011;59053;50.832;12.882;2023-04-09T03:07:29;43.83;;;14.43;;
70715;SDS011;59053;50.832;12.882;2023-04-09T03:09:54;47.07;;;14.97;;
70715;SDS011;59053;50.832;12.882;2023-04-09T03:12:19;42.10;;;13.43;;
70715;SDS011;59053;50.832;12.882;2023-04-09T03:14:45;41.42;;;13.52;;
70715;SDS011;59053;50.832;12.882;2023-04-09T03:17:10;45.73;;;14.07;;
70715;SDS011;59053;50.832;12.882;2023-04-09T03:19:35;47.10;;;14.57;;
70715;SDS011;59053;50.832;12.882;2023-04-09T03:24:51;45.90;;;14.20;;
70715;SDS011;59053;50.832;12.882;2023-04-09T03:27:17;44.70;;;13.97;;
70715;SDS011;59053;50.832;12.882;2023-04-09T03:35:57;44.60;;;13.60;;
70715;SDS011;59053;50.832;12.882;2023-04-09T03:38:57;44.38;;;13.10;;
70715;SDS011;59053;50.832;12.882;2023-04-09T03:41:51;41.03;;;13.60;;
70715;SDS011;59053;50.832;12.882;2023-04-09T03:47:08;42.47;;;13.25;;
70715;SDS011;59053;50.832;12.882;2023-04-09T03:49:35;41.92;;;13.02;;
70715;SDS011;59053;50.832;12.882;2023-04-09T03:52:09;48.13;;;13.95;;
70715;SDS011;59053;50.832;12.882;2023-04-09T03:54:53;47.13;;;13.35;;
70715;SDS011;59053;50.832;12.882;2023-04-09T03:57:29;49.20;;;13.53;;
70715;SDS011;59053;50.832;12.882;2023-04-09T03:59:55;46.13;;;14.18;;
70715;SDS011;59053;50.832;12.882;2023-04-09T04:02:22;46.80;;;14.38;;
70715;SDS011;59053;50.832;12.882;2023-04-09T04:05:00;45.50;;;13.48;;
70715;SDS011;59053;50.832;12.882;2023-04-09T04:07:31;40.40;;;12.57;;
70715;SDS011;59053;50.832;12.882;2023-04-09T04:10:02;47.97;;;13.57;;
70715;SDS011;59053;50.832;12.882;2023-04-09T04:12:30;43.58;;;14.20;;
70715;SDS011;59053;50.832;12.882;2023-04-09T04:18:36;40.70;;;12.70;;
70715;SDS011;59053;50.832;12.882;2023-04-09T04:21:02;41.10;;;12.83;;
70715;SDS011;59053;50.832;12.882;2023-04-09T04:23:29;45.38;;;13.73;;
70715;SDS011;59053;50.832;12.882;2023-04-09T04:26:09;44.08;;;13.27;;
70715;SDS011;59053;50.832;12.882;2023-04-09T04:28:35;42.80;;;13.35;;
70715;SDS011;59053;50.832;12.882;2023-04-09T04:31:10;48.97;;;14.60;;
70715;SDS011;59053;50.832;12.882;2023-04-09T04:33:36;44.80;;;13.88;;
70715;SDS011;59053;50.832;12.882;2023-04-09T04:36:08;44.33;;;13.25;;
70715;SDS011;59053;50.832;12.882;2023-04-09T04:38:39;45.50;;;14.63;;
70715;SDS011;59053;50.832;12.882;2023-04-09T04:41:14;43.25;;;14.00;;
70715;SDS011;59053;50.832;12.882;2023-04-09T04:43:46;43.93;;;13.80;;
70715;SDS011;59053;50.832;12.882;2023-04-09T04:46:17;39.90;;;13.20;;
70715;SDS011;59053;50.832;12.882;2023-04-09T04:48:45;46.53;;;13.43;;
70715;SDS011;59053;50.832;12.882;2023-04-09T04:51:10;43.43;;;12.63;;
70715;SDS011;59053;50.832;12.882;2023-04-09T04:53:41;42.60;;;13.55;;
70715;SDS011;59053;50.832;12.882;2023-04-09T04:56:12;48.88;;;14.02;;
70715;SDS011;59053;50.832;12.882;2023-04-09T04:58:44;42.55;;;13.70;;
70715;SDS011;59053;50.832;12.882;2023-04-09T05:01:11;39.20;;;12.17;;
70715;SDS011;59053;50.832;12.882;2023-04-09T05:03:36;45.75;;;13.70;;
70715;SDS011;59053;50.832;12.882;2023-04-09T05:06:22;44.20;;;13.10;;
70715;SDS011;59053;50.832;12.882;2023-04-09T05:08:48;45.28;;;13.48;;
70715;SDS011;59053;50.832;12.882;2023-04-09T05:11:13;44.10;;;13.70;;
70715;SDS011;59053;50.832;12.882;2023-04-09T05:13:41;38.38;;;12.65;;
70715;SDS011;59053;50.832;12.882;2023-04-09T05:16:14;43.95;;;13.00;;
70715;SDS011;59053;50.832;12.882;2023-04-09T05:18:42;43.07;;;13.17;;
70715;SDS011;59053;50.832;12.882;2023-04-09T05:21:07;40.85;;;13.55;;
70715;SDS011;59053;50.832;12.882;2023-04-09T05:23:32;38.70;;;13.43;;
70715;SDS011;59053;50.832;12.882;2023-04-09T05:25:58;36.80;;;12.07;;
70715;SDS011;59053;50.832;12.882;2023-04-09T05:31:31;40.80;;;13.20;;
70715;SDS011;59053;50.832;12.882;2023-04-09T05:34:11;44.05;;;14.15;;
70715;SDS011;59053;50.832;12.882;2023-04-09T05:36:53;60.70;;;19.23;;
70715;SDS011;59053;50.832;12.882;2023-04-09T05:39:34;53.55;;;16.52;;
70715;SDS011;59053;50.832;12.882;2023-04-09T05:42:10;51.65;;;15.80;;
70715;SDS011;59053;50.832;12.882;2023-04-09T05:44:51;44.33;;;15.10;;
70715;SDS011;59053;50.832;12.882;2023-04-09T05:47:19;52.05;;;17.08;;
70715;SDS011;59053;50.832;12.882;2023-04-09T05:49:57;48.27;;;15.50;;
70715;SDS011;59053;50.832;12.882;2023-04-09T05:52:22;50.83;;;15.98;;
70715;SDS011;59053;50.832;12.882;2023-04-09T05:54:49;56.45;;;18.52;;
70715;SDS011;59053;50.832;12.882;2023-04-09T05:57:27;50.10;;;16.83;;
70715;SDS011;59053;50.832;12.882;2023-04-09T05:59:58;42.72;;;13.95;;
70715;SDS011;59053;50.832;12.882;2023-04-09T06:02:38;42.13;;;14.40;;
70715;SDS011;59053;50.832;12.882;2023-04-09T06:05:04;49.58;;;16.00;;
70715;SDS011;59053;50.832;12.882;2023-04-09T06:07:32;42.25;;;14.30;;
70715;SDS011;59053;50.832;12.882;2023-04-09T06:09:57;41.22;;;14.00;;
70715;SDS011;59053;50.832;12.882;2023-04-09T06:12:22;39.83;;;14.00;;
70715;SDS011;59053;50.832;12.882;2023-04-09T06:14:48;40.90;;;14.13;;
70715;SDS011;59053;50.832;12.882;2023-04-09T06:17:27;44.30;;;13.93;;
70715;SDS011;59053;50.832;12.882;2023-04-09T06:19:53;41.60;;;13.38;;
70715;SDS011;59053;50.832;12.882;2023-04-09T06:22:18;49.70;;;14.30;;
70715;SDS011;59053;50.832;12.882;2023-04-09T06:27:30;57.10;;;15.45;;
70715;SDS011;59053;50.832;12.882;2023-04-09T06:29:55;45.97;;;14.43;;
70715;SDS011;59053;50.832;12.882;2023-04-09T06:32:21;49.83;;;15.03;;
70715;SDS011;59053;50.832;12.882;2023-04-09T06:34:46;54.50;;;14.87;;
70715;SDS011;59053;50.832;12.882;2023-04-09T06:37:14;56.10;;;15.70;;
70715;SDS011;59053;50.832;12.882;2023-04-09T06:42:32;48.87;;;15.07;;
70715;SDS011;59053;50.832;12.882;2023-04-09T06:45:10;54.42;;;15.45;;
70715;SDS011;59053;50.832;12.882;2023-04-09T06:47:41;55.83;;;15.18;;
70715;SDS011;59053;50.832;12.882;2023-04-09T06:50:13;51.08;;;14.85;;
70715;SDS011;59053;50.832;12.882;2023-04-09T06:52:44;49.63;;;15.43;;
70715;SDS011;59053;50.832;12.882;2023-04-09T06:55:27;50.70;;;15.37;;
70715;SDS011;59053;50.832;12.882;2023-04-09T06:57:53;53.22;;;16.60;;
70715;SDS011;59053;50.832;12.882;2023-04-09T07:00:25;47.67;;;14.43;;
70715;SDS011;59053;50.832;12.882;2023-04-09T07:02:50;48.35;;;15.10;;
70715;SDS011;59053;50.832;12.882;2023-04-09T07:08:33;45.05;;;15.80;;
70715;SDS011;59053;50.832;12.882;2023-04-09T07:10:59;44.58;;;15.00;;
70715;SDS011;59053;50.832;12.882;2023-04-09T07:13:24;39.93;;;13.80;;
70715;SDS011;59053;50.832;12.882;2023-04-09T07:15:50;41.42;;;13.88;;
70715;SDS011;59053;50.832;12.882;2023-04-09T07:18:15;37.37;;;13.47;;
70715;SDS011;59053;50.832;12.882;2023-04-09T07:23:47;39.75;;;14.23;;
70715;SDS011;59053;50.832;12.882;2023-04-09T07:29:02;38.97;;;13.52;;
70715;SDS011;59053;50.832;12.882;2023-04-09T07:31:33;41.80;;;15.23;;
70715;SDS011;59053;50.832;12.882;2023-04-09T07:34:12;41.28;;;15.10;;
70715;SDS011;59053;50.832;12.882;2023-04-09T07:36:53;43.90;;;14.38;;
70715;SDS011;59053;50.832;12.882;2023-04-09T07:42:10;47.00;;;15.35;;
70715;SDS011;59053;50.832;12.882;2023-04-09T07:44:41;45.10;;;14.70;;
70715;SDS011;59053;50.832;12.882;2023-04-09T07:50:06;44.28;;;13.77;;
70715;SDS011;59053;50.832;12.882;2023-04-09T07:52:32;44.53;;;14.52;;
70715;SDS011;59053;50.832;12.882;2023-04-09T07:54:57;43.60;;;14.97;;
70715;SDS011;59053;50.832;12.882;2023-04-09T07:57:23;41.37;;;13.77;;
70715;SDS011;59053;50.832;12.882;2023-04-09T07:59:49;43.47;;;14.23;;
70715;SDS011;59053;50.832;12.882;2023-04-09T08:02:23;36.97;;;12.90;;
70715;SDS011;59053;50.832;12.882;2023-04-09T08:13:10;38.10;;;13.50;;
70715;SDS011;59053;50.832;12.882;2023-04-09T08:15:35;36.28;;;13.02;;
70715;SDS011;59053;50.832;12.882;2023-04-09T08:18:18;38.40;;;13.60;;
70715;SDS011;59053;50.832;12.882;2023-04-09T08:20:57;39.53;;;13.83;;
70715;SDS011;59053;50.832;12.882;2023-04-09T08:23:25;32.05;;;11.80;;
70715;SDS011;59053;50.832;12.882;2023-04-09T08:25:51;36.00;;;12.80;;
70715;SDS011;59053;50.832;12.882;2023-04-09T08:31:19;33.97;;;12.20;;
70715;SDS011;59053;50.832;12.882;2023-04-09T08:36:33;34.25;;;12.77;;
70715;SDS011;59053;50.832;12.882;2023-04-09T08:39:11;34.40;;;12.90;;
70715;SDS011;59053;50.832;12.882;2023-04-09T08:44:12;33.67;;;12.35;;
70715;SDS011;59053;50.832;12.882;2023-04-09T08:46:48;36.07;;;13.63;;
70715;SDS011;59053;50.832;12.882;2023-04-09T08:49:26;35.55;;;13.93;;
70715;SDS011;59053;50.832;12.882;2023-04-09T08:51:52;30.65;;;12.05;;
70715;SDS011;59053;50.832;12.882;2023-04-09T08:54:17;32.40;;;12.77;;
70715;SDS011;59053;50.832;12.882;2023-04-09T08:56:46;28.27;;;10.60;;
70715;SDS011;59053;50.832;12.882;2023-04-09T08:59:15;29.77;;;12.00;;
70715;SDS011;59053;50.832;12.882;2023-04-09T09:01:47;31.10;;;12.55;;
70715;SDS011;59053;50.832;12.882;2023-04-09T09:04:18;30.83;;;12.15;;
70715;SDS011;59053;50.832;12.882;2023-04-09T09:06:52;31.23;;;12.73;;
70715;SDS011;59053;50.832;12.882;2023-04-09T09:09:18;32.30;;;12.82;;
70715;SDS011;59053;50.832;12.882;2023-04-09T09:11:47;30.67;;;12.13;;
70715;SDS011;59053;50.832;12.882;2023-04-09T09:14:22;29.27;;;11.18;;
70715;SDS011;59053;50.832;12.882;2023-04-09T09:19:38;27.67;;;12.18;;
70715;SDS011;59053;50.832;12.882;2023-04-09T09:22:05;23.30;;;9.43;;
70715;SDS011;59053;50.832;12.882;2023-04-09T09:24:46;25.25;;;11.13;;
70715;SDS011;59053;50.832;12.882;2023-04-09T09:30:21;13.43;;;6.05;;
70715;SDS011;59053;50.832;12.882;2023-04-09T09:36:09;29.40;;;12.02;;
70715;SDS011;59053;50.832;12.882;2023-04-09T09:41:39;22.70;;;10.80;;
70715;SDS011;59053;50.832;12.882;2023-04-09T09:44:08;26.07;;;10.93;;
70715;SDS011;59053;50.832;12.882;2023-04-09T09:46:38;26.20;;;11.77;;
70715;SDS011;59053;50.832;12.882;2023-04-09T09:49:04;28.40;;;11.70;;
70715;SDS011;59053;50.832;12.882;2023-04-09T09:51:31;27.23;;;12.15;;
70715;SDS011;59053;50.832;12.882;2023-04-09T09:56:48;26.60;;;12.13;;
70715;SDS011;59053;50.832;12.882;2023-04-09T10:03:14;21.77;;;9.82;;
70715;SDS011;59053;50.832;12.882;2023-04-09T10:05:52;24.33;;;10.88;;
70715;SDS011;59053;50.832;12.882;2023-04-09T10:08:18;24.17;;;10.93;;
70715;SDS011;59053;50.832;12.882;2023-04-09T10:10:44;26.53;;;12.20;;
70715;SDS011;59053;50.832;12.882;2023-04-09T10:13:32;26.40;;;12.15;;
70715;SDS011;59053;50.832;12.882;2023-04-09T10:15:59;17.85;;;8.45;;
70715;SDS011;59053;50.832;12.882;2023-04-09T10:18:25;26.17;;;11.85;;
70715;SDS011;59053;50.832;12.882;2023-04-09T10:20:58;24.33;;;10.70;;
70715;SDS011;59053;50.832;12.882;2023-04-09T10:23:39;25.35;;;11.13;;
70715;SDS011;59053;50.832;12.882;2023-04-09T10:26:05;24.92;;;9.95;;
70715;SDS011;59053;50.832;12.882;2023-04-09T10:28:30;24.23;;;11.27;;
70715;SDS011;59053;50.832;12.882;2023-04-09T10:31:09;21.48;;;10.00;;
70715;SDS011;59053;50.832;12.882;2023-04-09T10:33:49;16.10;;;7.50;;
70715;SDS011;59053;50.832;12.882;2023-04-09T10:36:17;18.58;;;9.23;;
70715;SDS011;59053;50.832;12.882;2023-04-09T10:38:49;22.17;;;8.25;;
70715;SDS011;59053;50.832;12.882;2023-04-09T10:41:45;12.52;;;5.68;;
70715;SDS011;59053;50.832;12.882;2023-04-09T10:44:19;12.88;;;6.03;;
70715;SDS011;59053;50.832;12.882;2023-04-09T10:46:46;14.43;;;7.17;;
70715;SDS011;59053;50.832;12.882;2023-04-09T10:58:06;16.13;;;7.75;;
70715;SDS011;59053;50.832;12.882;2023-04-09T11:00:52;12.80;;;6.33;;
70715;SDS011;59053;50.832;12.882;2023-04-09T11:03:21;18.38;;;8.45;;
70715;SDS011;59053;50.832;12.882;2023-04-09T11:06:12;17.70;;;7.93;;
70715;SDS011;59053;50.832;12.882;2023-04-09T11:11:42;19.45;;;8.90;;
70715;SDS011;59053;50.832;12.882;2023-04-09T11:14:20;21.63;;;9.20;;
70715;SDS011;59053;50.832;12.882;2023-04-09T11:19:38;19.77;;;9.80;;
70715;SDS011;59053;50.832;12.882;2023-04-09T11:25:09;16.85;;;8.07;;
70715;SDS011;59053;50.832;12.882;2023-04-09T11:30:49;16.02;;;6.88;;
70715;SDS011;59053;50.832;12.882;2023-04-09T11:36:36;20.00;;;8.70;;
70715;SDS011;59053;50.832;12.882;2023-04-09T11:39:01;17.63;;;7.40;;
70715;SDS011;59053;50.832;12.882;2023-04-09T11:41:36;20.97;;;9.73;;
70715;SDS011;59053;50.832;12.882;2023-04-09T11:44:02;18.77;;;8.73;;
70715;SDS011;59053;50.832;12.882;2023-04-09T11:46:29;15.15;;;7.18;;
70715;SDS011;59053;50.832;12.882;2023-04-09T11:49:11;17.23;;;7.40;;
70715;SDS011;59053;50.832;12.882;2023-04-09T11:51:37;17.20;;;7.95;;
70715;SDS011;59053;50.832;12.882;2023-04-09T11:54:21;18.63;;;9.47;;
70715;SDS011;59053;50.832;12.882;2023-04-09T11:56:57;16.75;;;7.90;;
70715;SDS011;59053;50.832;12.882;2023-04-09T11:59:46;16.08;;;7.65;;
70715;SDS011;59053;50.832;12.882;2023-04-09T12:02:12;22.23;;;10.97;;
70715;SDS011;59053;50.832;12.882;2023-04-09T12:07:32;16.50;;;7.10;;
70715;SDS011;59053;50.832;12.882;2023-04-09T12:10:08;17.23;;;8.25;;
70715;SDS011;59053;50.832;12.882;2023-04-09T12:15:38;18.70;;;8.87;;
70715;SDS011;59053;50.832;12.882;2023-04-09T12:18:21;17.50;;;9.10;;
70715;SDS011;59053;50.832;12.882;2023-04-09T12:23:42;18.50;;;8.98;;
70715;SDS011;59053;50.832;12.882;2023-04-09T12:26:07;16.90;;;8.20;;
70715;SDS011;59053;50.832;12.882;2023-04-09T12:28:39;12.83;;;6.23;;
70715;SDS011;59053;50.832;12.882;2023-04-09T12:31:07;18.75;;;9.30;;
70715;SDS011;59053;50.832;12.882;2023-04-09T12:33:35;17.10;;;9.02;;
70715;SDS011;59053;50.832;12.882;2023-04-09T12:36:03;17.60;;;8.97;;
70715;SDS011;59053;50.832;12.882;2023-04-09T12:38:28;19.63;;;9.95;;
70715;SDS011;59053;50.832;12.882;2023-04-09T12:40:53;12.33;;;6.13;;
70715;SDS011;59053;50.832;12.882;2023-04-09T12:43:27;13.83;;;6.60;;
70715;SDS011;59053;50.832;12.882;2023-04-09T12:45:52;15.60;;;7.75;;
70715;SDS011;59053;50.832;12.882;2023-04-09T12:48:29;15.70;;;7.75;;
70715;SDS011;59053;50.832;12.882;2023-04-09T12:53:54;18.63;;;9.25;;
70715;SDS011;59053;50.832;12.882;2023-04-09T12:56:20;21.03;;;10.87;;
70715;SDS011;59053;50.832;12.882;2023-04-09T12:58:45;20.27;;;9.73;;
70715;SDS011;59053;50.832;12.882;2023-04-09T13:01:10;18.25;;;8.43;;
70715;SDS011;59053;50.832;12.882;2023-04-09T13:03:53;15.13;;;7.50;;
70715;SDS011;59053;50.832;12.882;2023-04-09T13:06:18;19.43;;;9.87;;
70715;SDS011;59053;50.832;12.882;2023-04-09T13:11:37;20.08;;;9.93;;
70715;SDS011;59053;50.832;12.882;2023-04-09T13:14:02;18.67;;;8.27;;
70715;SDS011;59053;50.832;12.882;2023-04-09T13:16:27;18.60;;;9.87;;
70715;SDS011;59053;50.832;12.882;2023-04-09T13:18:53;19.63;;;9.90;;
70715;SDS011;59053;50.832;12.882;2023-04-09T13:21:18;20.77;;;10.40;;
70715;SDS011;59053;50.832;12.882;2023-04-09T13:23:43;18.17;;;9.40;;
70715;SDS011;59053;50.832;12.882;2023-04-09T13:26:09;17.97;;;9.50;;
70715;SDS011;59053;50.832;12.882;2023-04-09T13:28:34;14.98;;;8.10;;
70715;SDS011;59053;50.832;12.882;2023-04-09T13:31:01;14.73;;;7.37;;
70715;SDS011;59053;50.832;12.882;2023-04-09T13:33:27;16.60;;;7.22;;
70715;SDS011;59053;50.832;12.882;2023-04-09T13:38:42;15.13;;;7.35;;
70715;SDS011;59053;50.832;12.882;2023-04-09T13:41:07;19.60;;;10.27;;
70715;SDS011;59053;50.832;12.882;2023-04-09T13:43:33;19.90;;;9.47;;
70715;SDS011;59053;50.832;12.882;2023-04-09T13:46:00;16.20;;;8.35;;
70715;SDS011;59053;50.832;12.882;2023-04-09T13:48:28;16.75;;;8.63;;
70715;SDS011;59053;50.832;12.882;2023-04-09T13:50:53;19.60;;;10.30;;
70715;SDS011;59053;50.832;12.882;2023-04-09T13:53:18;20.57;;;9.03;;
70715;SDS011;59053;50.832;12.882;2023-04-09T13:55:44;16.90;;;8.15;;
70715;SDS011;59053;50.832;12.882;2023-04-09T13:58:10;18.10;;;9.30;;
70715;SDS011;59053;50.832;12.882;2023-04-09T14:00:52;17.83;;;8.98;;
70715;SDS011;59053;50.832;12.882;2023-04-09T14:03:33;13.43;;;6.88;;
70715;SDS011;59053;50.832;12.882;2023-04-09T14:05:59;17.08;;;8.20;;
70715;SDS011;59053;50.832;12.882;2023-04-09T14:08:39;13.20;;;6.78;;
70715;SDS011;59053;50.832;12.882;2023-04-09T14:11:10;12.47;;;6.13;;
70715;SDS011;59053;50.832;12.882;2023-04-09T14:13:47;17.67;;;8.55;;
70715;SDS011;59053;50.832;12.882;2023-04-09T14:16:12;15.50;;;8.73;;
70715;SDS011;59053;50.832;12.882;2023-04-09T14:18:38;17.23;;;9.40;;
70715;SDS011;59053;50.832;12.882;2023-04-09T14:21:04;16.58;;;9.35;;
70715;SDS011;59053;50.832;12.882;2023-04-09T14:23:30;16.95;;;8.73;;
70715;SDS011;59053;50.832;12.882;2023-04-09T14:29:10;13.32;;;7.03;;
70715;SDS011;59053;50.832;12.882;2023-04-09T14:31:36;14.80;;;6.53;;
70715;SDS011;59053;50.832;12.882;2023-04-09T14:34:01;15.93;;;8.23;;
70715;SDS011;59053;50.832;12.882;2023-04-09T14:39:12;16.20;;;9.00;;
70715;SDS011;59053;50.832;12.882;2023-04-09T14:41:38;16.23;;;7.93;;
70715;SDS011;59053;50.832;12.882;2023-04-09T14:44:03;17.87;;;8.80;;
70715;SDS011;59053;50.832;12.882;2023-04-09T14:46:31;18.77;;;10.30;;
70715;SDS011;59053;50.832;12.882;2023-04-09T14:49:04;19.73;;;10.37;;
70715;SDS011;59053;50.832;12.882;2023-04-09T14:51:37;19.73;;;9.25;;
70715;SDS011;59053;50.832;12.882;2023-04-09T14:54:02;16.35;;;8.40;;
70715;SDS011;59053;50.832;12.882;2023-04-09T14:56:28;17.27;;;8.53;;
70715;SDS011;59053;50.832;12.882;2023-04-09T14:59:05;19.93;;;9.80;;
70715;SDS011;59053;50.832;12.882;2023-04-09T15:04:21;18.63;;;10.20;;
70715;SDS011;59053;50.832;12.882;2023-04-09T15:06:47;17.80;;;9.60;;
70715;SDS011;59053;50.832;12.882;2023-04-09T15:09:30;15.90;;;8.27;;
70715;SDS011;59053;50.832;12.882;2023-04-09T15:12:09;17.50;;;9.40;;
70715;SDS011;59053;50.832;12.882;2023-04-09T15:17:19;18.63;;;9.77;;
70715;SDS011;59053;50.832;12.882;2023-04-09T15:19:47;18.27;;;9.83;;
70715;SDS011;59053;50.832;12.882;2023-04-09T15:28:26;19.60;;;11.20;;
70715;SDS011;59053;50.832;12.882;2023-04-09T15:33:58;12.85;;;7.22;;
70715;SDS011;59053;50.832;12.882;2023-04-09T15:36:35;17.90;;;9.93;;
70715;SDS011;59053;50.832;12.882;2023-04-09T15:39:10;17.48;;;10.10;;
70715;SDS011;59053;50.832;12.882;2023-04-09T15:44:21;17.50;;;9.73;;
70715;SDS011;59053;50.832;12.882;2023-04-09T15:47:00;18.27;;;9.20;;
70715;SDS011;59053;50.832;12.882;2023-04-09T15:52:30;16.25;;;7.85;;
70715;SDS011;59053;50.832;12.882;2023-04-09T15:55:11;18.77;;;10.07;;
70715;SDS011;59053;50.832;12.882;2023-04-09T15:57:40;16.70;;;8.85;;
70715;SDS011;59053;50.832;12.882;2023-04-09T16:00:10;20.08;;;10.18;;
70715;SDS011;59053;50.832;12.882;2023-04-09T16:02:39;15.73;;;7.90;;
70715;SDS011;59053;50.832;12.882;2023-04-09T16:05:05;16.90;;;8.80;;
70715;SDS011;59053;50.832;12.882;2023-04-09T16:07:36;16.77;;;8.97;;
70715;SDS011;59053;50.832;12.882;2023-04-09T16:10:03;25.15;;;14.15;;
70715;SDS011;59053;50.832;12.882;2023-04-09T16:12:29;19.15;;;9.85;;
70715;SDS011;59053;50.832;12.882;2023-04-09T16:14:54;21.07;;;11.47;;
70715;SDS011;59053;50.832;12.882;2023-04-09T16:17:19;34.70;;;17.90;;
70715;SDS011;59053;50.832;12.882;2023-04-09T16:19:45;22.40;;;12.15;;
70715;SDS011;59053;50.832;12.882;2023-04-09T16:22:11;15.63;;;8.47;;
70715;SDS011;59053;50.832;12.882;2023-04-09T16:24:38;18.20;;;8.93;;
70715;SDS011;59053;50.832;12.882;2023-04-09T16:27:04;27.63;;;15.63;;
70715;SDS011;59053;50.832;12.882;2023-04-09T16:29:36;27.93;;;15.27;;
70715;SDS011;59053;50.832;12.882;2023-04-09T16:32:13;33.78;;;18.65;;
70715;SDS011;59053;50.832;12.882;2023-04-09T16:34:41;33.03;;;16.17;;
70715;SDS011;59053;50.832;12.882;2023-04-09T16:37:06;13.82;;;6.43;;
70715;SDS011;59053;50.832;12.882;2023-04-09T16:39:32;14.80;;;7.60;;
70715;SDS011;59053;50.832;12.882;2023-04-09T16:41:57;18.07;;;9.20;;
70715;SDS011;59053;50.832;12.882;2023-04-09T16:44:23;12.17;;;5.90;;
70715;SDS011;59053;50.832;12.882;2023-04-09T16:47:14;14.75;;;5.68;;
70715;SDS011;59053;50.832;12.882;2023-04-09T16:49:40;12.95;;;5.78;;
70715;SDS011;59053;50.832;12.882;2023-04-09T16:55:28;103.80;;;51.92;;
70715;SDS011;59053;50.832;12.882;2023-04-09T16:57:53;14.17;;;7.10;;
70715;SDS011;59053;50.832;12.882;2023-04-09T17:00:20;15.20;;;7.65;;
70715;SDS011;59053;50.832;12.882;2023-04-09T17:05:51;15.27;;;7.35;;
70715;SDS011;59053;50.832;12.882;2023-04-09T17:08:17;21.08;;;10.93;;
70715;SDS011;59053;50.832;12.882;2023-04-09T17:10:48;26.52;;;13.38;;
70715;SDS011;59053;50.832;12.882;2023-04-09T17:13:18;15.63;;;7.13;;
70715;SDS011;59053;50.832;12.882;2023-04-09T17:15:44;13.47;;;7.03;;
70715;SDS011;59053;50.832;12.882;2023-04-09T17:18:10;22.20;;;10.18;;
70715;SDS011;59053;50.832;12.882;2023-04-09T17:20:35;19.15;;;9.27;;
70715;SDS011;59053;50.832;12.882;2023-04-09T17:23:01;24.67;;;12.97;;
70715;SDS011;59053;50.832;12.882;2023-04-09T17:25:26;18.93;;;9.30;;
70715;SDS011;59053;50.832;12.882;2023-04-09T17:27:52;13.30;;;5.87;;
70715;SDS011;59053;50.832;12.882;2023-04-09T17:30:18;28.50;;;15.57;;
70715;SDS011;59053;50.832;12.882;2023-04-09T17:32:44;34.17;;;19.70;;
70715;SDS011;59053;50.832;12.882;2023-04-09T17:35:09;21.45;;;11.02;;
70715;SDS011;59053;50.832;12.882;2023-04-09T17:37:41;15.00;;;7.33;;
70715;SDS011;59053;50.832;12.882;2023-04-09T17:40:07;18.38;;;9.55;;